createdAt,value
2022-08-17T00:00:00.253Z,17.8
2022-08-17T00:10:00.231Z,17.6
2022-08-17T00:20:00.301Z,17.4
2022-08-17T00:30:00.219Z,17.4
2022-08-17T00:40:00.367Z,17.2
2022-08-17T00:50:00.261Z,17.0
2022-08-17T01:00:02.911Z,16.9
2022-08-17T01:10:00.224Z,16.8
2022-08-17T01:20:00.296Z,16.7
2022-08-17T01:30:00.236Z,16.6
2022-08-17T01:40:00.307Z,16.6
2022-08-17T01:50:00.236Z,16.5
2022-08-17T02:00:00.216Z,16.5
2022-08-17T02:10:00.217Z,16.4
2022-08-17T02:20:00.225Z,16.2
2022-08-17T02:30:00.318Z,16.1
2022-08-17T02:40:00.384Z,16.0
2022-08-17T02:50:00.246Z,15.8
2022-08-17T03:00:00.253Z,15.8
2022-08-17T03:10:00.254Z,15.7
2022-08-17T03:20:00.233Z,15.8
2022-08-17T03:30:00.225Z,15.8
2022-08-17T03:40:00.383Z,15.7
2022-08-17T03:50:00.216Z,15.5
2022-08-17T04:00:00.253Z,15.4
2022-08-17T04:10:00.262Z,15.3
2022-08-17T04:20:00.264Z,15.3
2022-08-17T04:30:00.237Z,15.2
2022-08-17T04:40:03.756Z,15.3
2022-08-17T04:50:00.295Z,15.4
2022-08-17T05:00:00.241Z,15.6
2022-08-17T05:10:00.271Z,15.8
2022-08-17T05:20:00.266Z,16.1
2022-08-17T05:30:00.215Z,16.6
2022-08-17T05:40:00.418Z,17.2
2022-08-17T05:50:00.250Z,17.9
2022-08-17T06:00:00.267Z,18.6
2022-08-17T06:10:00.236Z,19.2
2022-08-17T06:20:00.241Z,19.9
2022-08-17T06:30:00.247Z,20.8
2022-08-17T06:40:00.317Z,21.6
2022-08-17T06:50:00.228Z,22.3
2022-08-17T07:00:00.229Z,23.1
2022-08-17T07:10:00.298Z,23.8
2022-08-17T07:20:00.266Z,24.4
2022-08-17T07:30:00.249Z,25.0
2022-08-17T07:40:14.982Z,25.8
2022-08-17T07:50:00.244Z,26.5
2022-08-17T08:00:01.142Z,27.2
2022-08-17T08:10:00.318Z,27.6
2022-08-17T08:20:00.221Z,28.0
2022-08-17T08:30:00.281Z,28.4
2022-08-17T08:40:00.348Z,29.0
2022-08-17T08:50:04.952Z,29.3
2022-08-17T09:00:00.238Z,29.5
2022-08-17T09:10:00.291Z,29.3
2022-08-17T09:20:00.258Z,29.4
2022-08-17T09:30:00.291Z,29.3
2022-08-17T09:40:00.376Z,29.5
2022-08-17T09:50:00.255Z,29.5
2022-08-17T10:00:00.225Z,29.7
2022-08-17T10:10:00.318Z,29.9
2022-08-17T10:20:00.246Z,30.0
2022-08-17T10:30:00.238Z,30.1
2022-08-17T10:40:00.323Z,30.4
2022-08-17T10:50:00.228Z,30.6
2022-08-17T11:00:00.237Z,30.8
2022-08-17T11:10:00.290Z,31.0
2022-08-17T11:20:00.303Z,31.1
2022-08-17T11:30:01.719Z,31.4
2022-08-17T11:40:00.363Z,31.6
2022-08-17T11:50:00.234Z,31.7
2022-08-17T12:00:00.241Z,31.9
2022-08-17T12:10:00.268Z,32.1
2022-08-17T12:20:00.218Z,32.2
2022-08-17T12:30:00.234Z,32.1
2022-08-17T12:40:00.497Z,32.1
2022-08-17T12:50:00.236Z,32.2
2022-08-17T13:00:00.241Z,32.3
2022-08-17T13:10:00.552Z,32.3
2022-08-17T13:20:00.271Z,32.4
2022-08-17T13:30:00.261Z,32.4
2022-08-17T13:40:00.319Z,32.4
2022-08-17T13:50:00.237Z,32.4
2022-08-17T14:00:00.242Z,32.6
2022-08-17T14:10:00.308Z,32.8
2022-08-17T14:20:00.246Z,32.8
2022-08-17T14:30:00.369Z,32.8
2022-08-17T14:40:00.374Z,32.9
2022-08-17T14:50:00.239Z,33.0
2022-08-17T15:00:00.246Z,33.1
2022-08-17T15:10:00.379Z,33.4
2022-08-17T15:20:00.259Z,33.3
2022-08-17T15:30:00.229Z,33.3
2022-08-17T15:40:00.311Z,33.4
2022-08-17T15:50:00.548Z,33.2
2022-08-17T16:00:00.305Z,33.1
2022-08-17T16:10:00.314Z,33.0
2022-08-17T16:20:00.234Z,33.0
2022-08-17T16:30:00.221Z,32.8
2022-08-17T16:40:00.322Z,32.6
2022-08-17T16:50:00.244Z,32.2
2022-08-17T17:00:00.228Z,31.5
2022-08-17T17:10:00.297Z,31.0
2022-08-17T17:20:00.262Z,30.4
2022-08-17T17:30:00.248Z,29.8
2022-08-17T17:40:00.377Z,29.3
2022-08-17T17:50:00.271Z,28.7
2022-08-17T18:00:00.284Z,28.2
2022-08-17T18:10:01.292Z,27.7
2022-08-17T18:20:00.238Z,27.3
2022-08-17T18:30:00.239Z,26.7
2022-08-17T18:40:00.328Z,26.3
2022-08-17T18:50:00.228Z,25.8
2022-08-17T19:00:00.218Z,25.4
2022-08-17T19:10:00.279Z,25.0
2022-08-17T19:20:00.239Z,24.5
2022-08-17T19:30:03.976Z,24.2
2022-08-17T19:40:00.328Z,24.0
2022-08-17T19:50:00.226Z,23.5
2022-08-17T20:00:00.227Z,23.1
2022-08-17T20:10:00.292Z,22.7
2022-08-17T20:20:00.227Z,22.5
2022-08-17T20:30:00.216Z,22.2
2022-08-17T20:40:00.389Z,22.0
2022-08-17T20:50:00.407Z,21.7
2022-08-17T21:00:00.285Z,21.5
2022-08-17T21:10:00.295Z,21.3
2022-08-17T21:20:10.696Z,21.2
2022-08-17T21:30:00.252Z,21.0
2022-08-17T21:40:00.381Z,20.8
2022-08-17T21:50:00.243Z,20.6
2022-08-17T22:00:00.255Z,20.4
2022-08-17T22:10:00.293Z,20.2
2022-08-17T22:20:00.246Z,20.0
2022-08-17T22:30:00.295Z,20.0
2022-08-17T22:40:00.347Z,19.9
2022-08-17T22:50:00.247Z,19.8
2022-08-17T23:00:00.295Z,19.6
2022-08-17T23:10:00.301Z,19.3
2022-08-17T23:20:00.239Z,19.2
2022-08-17T23:30:00.230Z,19.0
2022-08-17T23:40:00.380Z,19.0
2022-08-17T23:50:01.682Z,18.9
